sensor_id;sensor_type;location;lat;lon;timestamp;P1;durP1;ratioP1;P2;durP2;ratioP2
68250;SDS011;55066;51.560;4.642;2024-03-08T00:01:47;35.30;;;10.75;;
68250;SDS011;55066;51.560;4.642;2024-03-08T00:04:13;35.65;;;11.43;;
68250;SDS011;55066;51.560;4.642;2024-03-08T00:06:40;30.42;;;10.32;;
68250;SDS011;55066;51.560;4.642;2024-03-08T00:09:06;39.90;;;11.57;;
68250;SDS011;55066;51.560;4.642;2024-03-08T00:11:35;34.90;;;10.80;;
68250;SDS011;55066;51.560;4.642;2024-03-08T00:14:01;33.30;;;10.53;;
68250;SDS011;55066;51.560;4.642;2024-03-08T00:16:26;33.33;;;10.20;;
68250;SDS011;55066;51.560;4.642;2024-03-08T00:18:52;35.77;;;10.70;;
68250;SDS011;55066;51.560;4.642;2024-03-08T00:21:18;28.80;;;9.57;;
68250;SDS011;55066;51.560;4.642;2024-03-08T00:23:43;29.53;;;10.67;;
68250;SDS011;55066;51.560;4.642;2024-03-08T00:26:09;31.83;;;9.80;;
68250;SDS011;55066;51.560;4.642;2024-03-08T00:28:35;37.42;;;10.80;;
68250;SDS011;55066;51.560;4.642;2024-03-08T00:31:01;27.23;;;10.10;;
68250;SDS011;55066;51.560;4.642;2024-03-08T00:33:26;29.33;;;9.73;;
68250;SDS011;55066;51.560;4.642;2024-03-08T00:35:53;27.83;;;9.32;;
68250;SDS011;55066;51.560;4.642;2024-03-08T00:38:19;34.13;;;10.32;;
68250;SDS011;55066;51.560;4.642;2024-03-08T00:40:44;25.73;;;9.17;;
68250;SDS011;55066;51.560;4.642;2024-03-08T00:43:10;30.85;;;10.27;;
68250;SDS011;55066;51.560;4.642;2024-03-08T00:45:35;32.87;;;9.93;;
68250;SDS011;55066;51.560;4.642;2024-03-08T00:48:02;32.83;;;9.60;;
68250;SDS011;55066;51.560;4.642;2024-03-08T00:50:28;33.08;;;10.13;;
68250;SDS011;55066;51.560;4.642;2024-03-08T00:52:54;33.40;;;11.10;;
68250;SDS011;55066;51.560;4.642;2024-03-08T00:55:19;30.43;;;9.40;;
68250;SDS011;55066;51.560;4.642;2024-03-08T00:57:45;37.15;;;11.57;;
68250;SDS011;55066;51.560;4.642;2024-03-08T01:00:11;31.63;;;9.80;;
68250;SDS011;55066;51.560;4.642;2024-03-08T01:02:38;32.67;;;11.18;;
68250;SDS011;55066;51.560;4.642;2024-03-08T01:05:04;35.95;;;10.80;;
68250;SDS011;55066;51.560;4.642;2024-03-08T01:07:36;38.63;;;11.43;;
68250;SDS011;55066;51.560;4.642;2024-03-08T01:10:02;33.73;;;10.37;;
68250;SDS011;55066;51.560;4.642;2024-03-08T01:12:28;39.03;;;11.57;;
68250;SDS011;55066;51.560;4.642;2024-03-08T01:14:55;33.53;;;10.68;;
68250;SDS011;55066;51.560;4.642;2024-03-08T01:17:21;33.25;;;10.57;;
68250;SDS011;55066;51.560;4.642;2024-03-08T01:19:47;29.37;;;9.73;;
68250;SDS011;55066;51.560;4.642;2024-03-08T01:22:12;35.73;;;10.77;;
68250;SDS011;55066;51.560;4.642;2024-03-08T01:24:38;34.97;;;10.87;;
68250;SDS011;55066;51.560;4.642;2024-03-08T01:27:03;31.95;;;10.02;;
68250;SDS011;55066;51.560;4.642;2024-03-08T01:29:29;30.83;;;10.27;;
68250;SDS011;55066;51.560;4.642;2024-03-08T01:31:55;26.97;;;9.90;;
68250;SDS011;55066;51.560;4.642;2024-03-08T01:34:21;28.92;;;9.60;;
68250;SDS011;55066;51.560;4.642;2024-03-08T01:36:47;30.95;;;10.43;;
68250;SDS011;55066;51.560;4.642;2024-03-08T01:39:13;31.85;;;10.70;;
68250;SDS011;55066;51.560;4.642;2024-03-08T01:41:39;30.73;;;10.77;;
68250;SDS011;55066;51.560;4.642;2024-03-08T01:44:05;27.00;;;10.27;;
68250;SDS011;55066;51.560;4.642;2024-03-08T01:46:35;37.13;;;11.02;;
68250;SDS011;55066;51.560;4.642;2024-03-08T01:49:01;27.92;;;10.05;;
68250;SDS011;55066;51.560;4.642;2024-03-08T01:51:27;28.77;;;9.67;;
68250;SDS011;55066;51.560;4.642;2024-03-08T01:53:53;34.83;;;10.65;;
68250;SDS011;55066;51.560;4.642;2024-03-08T01:56:23;29.38;;;9.82;;
68250;SDS011;55066;51.560;4.642;2024-03-08T01:58:50;31.05;;;10.35;;
68250;SDS011;55066;51.560;4.642;2024-03-08T02:01:16;29.33;;;9.70;;
68250;SDS011;55066;51.560;4.642;2024-03-08T02:03:41;33.70;;;11.02;;
68250;SDS011;55066;51.560;4.642;2024-03-08T02:06:09;31.63;;;9.87;;
68250;SDS011;55066;51.560;4.642;2024-03-08T02:08:37;29.38;;;10.57;;
68250;SDS011;55066;51.560;4.642;2024-03-08T02:11:03;27.65;;;9.38;;
68250;SDS011;55066;51.560;4.642;2024-03-08T02:13:29;29.02;;;10.23;;
68250;SDS011;55066;51.560;4.642;2024-03-08T02:15:56;26.33;;;9.47;;
68250;SDS011;55066;51.560;4.642;2024-03-08T02:18:26;30.05;;;10.13;;
68250;SDS011;55066;51.560;4.642;2024-03-08T02:20:58;29.95;;;10.82;;
68250;SDS011;55066;51.560;4.642;2024-03-08T02:23:24;27.05;;;9.55;;
68250;SDS011;55066;51.560;4.642;2024-03-08T02:25:51;29.63;;;9.70;;
68250;SDS011;55066;51.560;4.642;2024-03-08T02:28:18;28.95;;;10.52;;
68250;SDS011;55066;51.560;4.642;2024-03-08T02:30:44;28.67;;;9.60;;
68250;SDS011;55066;51.560;4.642;2024-03-08T02:33:15;32.03;;;10.70;;
68250;SDS011;55066;51.560;4.642;2024-03-08T02:35:45;34.72;;;11.15;;
68250;SDS011;55066;51.560;4.642;2024-03-08T02:38:12;28.08;;;9.30;;
68250;SDS011;55066;51.560;4.642;2024-03-08T02:40:38;30.17;;;10.18;;
68250;SDS011;55066;51.560;4.642;2024-03-08T02:43:03;27.70;;;9.47;;
68250;SDS011;55066;51.560;4.642;2024-03-08T02:45:30;33.88;;;11.55;;
68250;SDS011;55066;51.560;4.642;2024-03-08T02:47:55;30.30;;;11.07;;
68250;SDS011;55066;51.560;4.642;2024-03-08T02:50:21;34.75;;;10.38;;
68250;SDS011;55066;51.560;4.642;2024-03-08T02:52:47;29.17;;;10.17;;
68250;SDS011;55066;51.560;4.642;2024-03-08T02:55:13;30.75;;;10.25;;
68250;SDS011;55066;51.560;4.642;2024-03-08T02:57:42;27.58;;;10.25;;
68250;SDS011;55066;51.560;4.642;2024-03-08T03:00:10;29.83;;;9.85;;
68250;SDS011;55066;51.560;4.642;2024-03-08T03:02:36;32.83;;;11.60;;
68250;SDS011;55066;51.560;4.642;2024-03-08T03:05:02;31.83;;;10.67;;
68250;SDS011;55066;51.560;4.642;2024-03-08T03:07:31;35.25;;;10.63;;
68250;SDS011;55066;51.560;4.642;2024-03-08T03:09:58;29.20;;;10.18;;
68250;SDS011;55066;51.560;4.642;2024-03-08T03:12:26;32.38;;;11.00;;
68250;SDS011;55066;51.560;4.642;2024-03-08T03:14:56;31.50;;;10.65;;
68250;SDS011;55066;51.560;4.642;2024-03-08T03:17:25;28.23;;;10.80;;
68250;SDS011;55066;51.560;4.642;2024-03-08T03:19:51;30.35;;;10.52;;
68250;SDS011;55066;51.560;4.642;2024-03-08T03:22:17;26.60;;;10.18;;
68250;SDS011;55066;51.560;4.642;2024-03-08T03:24:45;29.83;;;10.88;;
68250;SDS011;55066;51.560;4.642;2024-03-08T03:27:14;29.42;;;10.52;;
68250;SDS011;55066;51.560;4.642;2024-03-08T03:29:40;27.30;;;10.27;;
68250;SDS011;55066;51.560;4.642;2024-03-08T03:32:12;27.45;;;9.70;;
68250;SDS011;55066;51.560;4.642;2024-03-08T03:34:38;29.08;;;10.43;;
68250;SDS011;55066;51.560;4.642;2024-03-08T03:37:05;24.30;;;9.38;;
68250;SDS011;55066;51.560;4.642;2024-03-08T03:39:32;31.43;;;9.77;;
68250;SDS011;55066;51.560;4.642;2024-03-08T03:41:58;27.83;;;9.98;;
68250;SDS011;55066;51.560;4.642;2024-03-08T03:44:24;30.23;;;10.20;;
68250;SDS011;55066;51.560;4.642;2024-03-08T03:46:50;31.30;;;10.30;;
68250;SDS011;55066;51.560;4.642;2024-03-08T03:49:18;24.25;;;9.13;;
68250;SDS011;55066;51.560;4.642;2024-03-08T03:51:43;27.53;;;9.73;;
68250;SDS011;55066;51.560;4.642;2024-03-08T03:54:09;27.73;;;9.00;;
68250;SDS011;55066;51.560;4.642;2024-03-08T03:56:35;30.83;;;10.02;;
68250;SDS011;55066;51.560;4.642;2024-03-08T03:59:01;27.87;;;9.20;;
68250;SDS011;55066;51.560;4.642;2024-03-08T04:01:27;30.42;;;10.30;;
68250;SDS011;55066;51.560;4.642;2024-03-08T04:03:54;33.42;;;9.90;;
68250;SDS011;55066;51.560;4.642;2024-03-08T04:06:21;27.83;;;10.13;;
68250;SDS011;55066;51.560;4.642;2024-03-08T04:08:48;23.70;;;8.05;;
68250;SDS011;55066;51.560;4.642;2024-03-08T04:11:14;26.95;;;9.70;;
68250;SDS011;55066;51.560;4.642;2024-03-08T04:13:41;30.98;;;9.77;;
68250;SDS011;55066;51.560;4.642;2024-03-08T04:16:07;24.07;;;8.83;;
68250;SDS011;55066;51.560;4.642;2024-03-08T04:18:34;25.73;;;10.18;;
68250;SDS011;55066;51.560;4.642;2024-03-08T04:21:01;24.73;;;9.93;;
68250;SDS011;55066;51.560;4.642;2024-03-08T04:23:27;26.20;;;8.77;;
68250;SDS011;55066;51.560;4.642;2024-03-08T04:25:53;30.55;;;11.40;;
68250;SDS011;55066;51.560;4.642;2024-03-08T04:28:19;29.95;;;10.55;;
68250;SDS011;55066;51.560;4.642;2024-03-08T04:30:45;22.88;;;8.27;;
68250;SDS011;55066;51.560;4.642;2024-03-08T04:33:11;19.67;;;7.93;;
68250;SDS011;55066;51.560;4.642;2024-03-08T04:35:43;24.03;;;8.83;;
68250;SDS011;55066;51.560;4.642;2024-03-08T04:38:10;26.67;;;9.32;;
68250;SDS011;55066;51.560;4.642;2024-03-08T04:40:36;30.60;;;10.23;;
68250;SDS011;55066;51.560;4.642;2024-03-08T04:43:01;28.60;;;10.10;;
68250;SDS011;55066;51.560;4.642;2024-03-08T04:45:27;30.13;;;8.67;;
68250;SDS011;55066;51.560;4.642;2024-03-08T04:47:53;25.97;;;10.40;;
68250;SDS011;55066;51.560;4.642;2024-03-08T04:50:18;28.85;;;10.95;;
68250;SDS011;55066;51.560;4.642;2024-03-08T04:52:44;28.87;;;10.20;;
68250;SDS011;55066;51.560;4.642;2024-03-08T04:55:09;32.15;;;11.38;;
68250;SDS011;55066;51.560;4.642;2024-03-08T04:57:35;23.15;;;7.95;;
68250;SDS011;55066;51.560;4.642;2024-03-08T05:00:04;31.73;;;10.77;;
68250;SDS011;55066;51.560;4.642;2024-03-08T05:02:40;24.23;;;9.50;;
68250;SDS011;55066;51.560;4.642;2024-03-08T05:05:07;32.22;;;10.38;;
68250;SDS011;55066;51.560;4.642;2024-03-08T05:07:34;33.63;;;11.87;;
68250;SDS011;55066;51.560;4.642;2024-03-08T05:10:00;30.33;;;9.20;;
68250;SDS011;55066;51.560;4.642;2024-03-08T05:12:27;30.88;;;10.00;;
68250;SDS011;55066;51.560;4.642;2024-03-08T05:14:53;29.53;;;11.30;;
68250;SDS011;55066;51.560;4.642;2024-03-08T05:17:18;27.00;;;9.75;;
68250;SDS011;55066;51.560;4.642;2024-03-08T05:19:45;25.45;;;9.10;;
68250;SDS011;55066;51.560;4.642;2024-03-08T05:22:11;29.07;;;10.43;;
68250;SDS011;55066;51.560;4.642;2024-03-08T05:24:38;26.60;;;8.15;;
68250;SDS011;55066;51.560;4.642;2024-03-08T05:27:03;29.47;;;10.77;;
68250;SDS011;55066;51.560;4.642;2024-03-08T05:29:29;29.73;;;10.73;;
68250;SDS011;55066;51.560;4.642;2024-03-08T05:31:55;25.27;;;8.27;;
68250;SDS011;55066;51.560;4.642;2024-03-08T05:34:22;21.25;;;7.82;;
68250;SDS011;55066;51.560;4.642;2024-03-08T05:36:50;37.13;;;12.07;;
68250;SDS011;55066;51.560;4.642;2024-03-08T05:39:17;25.60;;;9.50;;
68250;SDS011;55066;51.560;4.642;2024-03-08T05:41:43;27.98;;;10.45;;
68250;SDS011;55066;51.560;4.642;2024-03-08T05:44:09;23.23;;;8.82;;
68250;SDS011;55066;51.560;4.642;2024-03-08T05:46:35;30.07;;;8.67;;
68250;SDS011;55066;51.560;4.642;2024-03-08T05:49:02;27.58;;;8.88;;
68250;SDS011;55066;51.560;4.642;2024-03-08T05:51:31;30.63;;;10.07;;
68250;SDS011;55066;51.560;4.642;2024-03-08T05:54:02;31.88;;;10.13;;
68250;SDS011;55066;51.560;4.642;2024-03-08T05:56:30;30.90;;;11.25;;
68250;SDS011;55066;51.560;4.642;2024-03-08T05:58:56;24.73;;;9.13;;
68250;SDS011;55066;51.560;4.642;2024-03-08T06:01:23;29.35;;;10.48;;
68250;SDS011;55066;51.560;4.642;2024-03-08T06:03:55;28.02;;;8.70;;
68250;SDS011;55066;51.560;4.642;2024-03-08T06:06:22;27.08;;;9.57;;
68250;SDS011;55066;51.560;4.642;2024-03-08T06:08:49;32.80;;;11.05;;
68250;SDS011;55066;51.560;4.642;2024-03-08T06:11:17;28.07;;;10.37;;
68250;SDS011;55066;51.560;4.642;2024-03-08T06:13:45;33.50;;;12.00;;
68250;SDS011;55066;51.560;4.642;2024-03-08T06:16:11;27.50;;;10.10;;
68250;SDS011;55066;51.560;4.642;2024-03-08T06:18:37;30.73;;;10.40;;
68250;SDS011;55066;51.560;4.642;2024-03-08T06:21:04;26.05;;;9.90;;
68250;SDS011;55066;51.560;4.642;2024-03-08T06:23:34;29.48;;;10.68;;
68250;SDS011;55066;51.560;4.642;2024-03-08T06:26:06;36.85;;;11.40;;
68250;SDS011;55066;51.560;4.642;2024-03-08T06:28:35;28.83;;;9.77;;
68250;SDS011;55066;51.560;4.642;2024-03-08T06:31:00;31.65;;;10.93;;
68250;SDS011;55066;51.560;4.642;2024-03-08T06:33:27;34.88;;;11.50;;
68250;SDS011;55066;51.560;4.642;2024-03-08T06:35:53;32.97;;;11.27;;
68250;SDS011;55066;51.560;4.642;2024-03-08T06:38:22;34.80;;;10.23;;
68250;SDS011;55066;51.560;4.642;2024-03-08T06:40:52;27.75;;;10.77;;
68250;SDS011;55066;51.560;4.642;2024-03-08T06:43:18;36.78;;;11.05;;
68250;SDS011;55066;51.560;4.642;2024-03-08T06:45:44;25.02;;;8.88;;
68250;SDS011;55066;51.560;4.642;2024-03-08T06:48:22;33.80;;;11.52;;
68250;SDS011;55066;51.560;4.642;2024-03-08T06:50:48;26.83;;;8.57;;
68250;SDS011;55066;51.560;4.642;2024-03-08T06:53:13;26.87;;;10.13;;
68250;SDS011;55066;51.560;4.642;2024-03-08T06:55:39;28.50;;;11.07;;
68250;SDS011;55066;51.560;4.642;2024-03-08T06:58:07;36.13;;;12.95;;
68250;SDS011;55066;51.560;4.642;2024-03-08T07:00:33;32.07;;;10.20;;
68250;SDS011;55066;51.560;4.642;2024-03-08T07:02:59;27.42;;;10.30;;
68250;SDS011;55066;51.560;4.642;2024-03-08T07:05:29;29.20;;;9.60;;
68250;SDS011;55066;51.560;4.642;2024-03-08T07:07:55;35.43;;;10.77;;
68250;SDS011;55066;51.560;4.642;2024-03-08T07:10:22;26.48;;;9.18;;
68250;SDS011;55066;51.560;4.642;2024-03-08T07:12:51;26.98;;;7.43;;
68250;SDS011;55066;51.560;4.642;2024-03-08T07:15:18;25.27;;;8.97;;
68250;SDS011;55066;51.560;4.642;2024-03-08T07:17:45;29.85;;;10.13;;
68250;SDS011;55066;51.560;4.642;2024-03-08T07:20:12;24.58;;;9.95;;
68250;SDS011;55066;51.560;4.642;2024-03-08T07:22:39;32.88;;;11.02;;
68250;SDS011;55066;51.560;4.642;2024-03-08T07:25:05;32.20;;;10.47;;
68250;SDS011;55066;51.560;4.642;2024-03-08T07:27:49;28.48;;;10.13;;
68250;SDS011;55066;51.560;4.642;2024-03-08T07:30:16;32.10;;;9.95;;
68250;SDS011;55066;51.560;4.642;2024-03-08T07:33:02;20.33;;;8.07;;
68250;SDS011;55066;51.560;4.642;2024-03-08T07:35:28;29.30;;;9.23;;
68250;SDS011;55066;51.560;4.642;2024-03-08T07:37:54;32.38;;;11.18;;
68250;SDS011;55066;51.560;4.642;2024-03-08T07:40:23;28.55;;;9.40;;
68250;SDS011;55066;51.560;4.642;2024-03-08T07:42:51;24.33;;;8.88;;
68250;SDS011;55066;51.560;4.642;2024-03-08T07:45:17;36.27;;;11.90;;
68250;SDS011;55066;51.560;4.642;2024-03-08T07:47:43;21.40;;;8.40;;
68250;SDS011;55066;51.560;4.642;2024-03-08T07:50:09;27.42;;;8.95;;
68250;SDS011;55066;51.560;4.642;2024-03-08T07:52:35;24.05;;;9.02;;
68250;SDS011;55066;51.560;4.642;2024-03-08T07:55:01;36.28;;;11.85;;
68250;SDS011;55066;51.560;4.642;2024-03-08T07:57:28;27.67;;;9.65;;
68250;SDS011;55066;51.560;4.642;2024-03-08T07:59:55;34.50;;;11.97;;
68250;SDS011;55066;51.560;4.642;2024-03-08T08:02:20;19.83;;;8.13;;
68250;SDS011;55066;51.560;4.642;2024-03-08T08:04:46;25.40;;;9.45;;
68250;SDS011;55066;51.560;4.642;2024-03-08T08:07:12;23.97;;;8.20;;
68250;SDS011;55066;51.560;4.642;2024-03-08T08:09:37;30.63;;;10.33;;
68250;SDS011;55066;51.560;4.642;2024-03-08T08:12:03;25.40;;;10.43;;
68250;SDS011;55066;51.560;4.642;2024-03-08T08:14:29;24.90;;;8.73;;
68250;SDS011;55066;51.560;4.642;2024-03-08T08:16:55;32.50;;;11.68;;
68250;SDS011;55066;51.560;4.642;2024-03-08T08:19:25;25.05;;;8.90;;
68250;SDS011;55066;51.560;4.642;2024-03-08T08:21:52;19.63;;;7.70;;
68250;SDS011;55066;51.560;4.642;2024-03-08T08:24:18;18.67;;;6.77;;
68250;SDS011;55066;51.560;4.642;2024-03-08T08:26:47;21.25;;;8.10;;
68250;SDS011;55066;51.560;4.642;2024-03-08T08:29:12;28.60;;;10.43;;
68250;SDS011;55066;51.560;4.642;2024-03-08T08:31:38;21.40;;;8.07;;
68250;SDS011;55066;51.560;4.642;2024-03-08T08:34:04;31.83;;;10.30;;
68250;SDS011;55066;51.560;4.642;2024-03-08T08:36:29;26.48;;;9.52;;
68250;SDS011;55066;51.560;4.642;2024-03-08T08:38:56;29.27;;;11.07;;
68250;SDS011;55066;51.560;4.642;2024-03-08T08:41:24;27.83;;;9.85;;
68250;SDS011;55066;51.560;4.642;2024-03-08T08:43:50;27.73;;;9.77;;
68250;SDS011;55066;51.560;4.642;2024-03-08T08:46:17;34.13;;;10.30;;
68250;SDS011;55066;51.560;4.642;2024-03-08T08:48:42;33.30;;;11.70;;
68250;SDS011;55066;51.560;4.642;2024-03-08T08:51:10;28.05;;;9.60;;
68250;SDS011;55066;51.560;4.642;2024-03-08T08:53:39;27.35;;;9.63;;
68250;SDS011;55066;51.560;4.642;2024-03-08T08:56:09;32.70;;;10.15;;
68250;SDS011;55066;51.560;4.642;2024-03-08T08:58:41;33.13;;;11.27;;
68250;SDS011;55066;51.560;4.642;2024-03-08T09:01:08;29.57;;;9.80;;
68250;SDS011;55066;51.560;4.642;2024-03-08T09:03:38;29.42;;;9.75;;
68250;SDS011;55066;51.560;4.642;2024-03-08T09:06:06;30.25;;;10.93;;
68250;SDS011;55066;51.560;4.642;2024-03-08T09:08:35;25.88;;;8.73;;
68250;SDS011;55066;51.560;4.642;2024-03-08T09:11:01;27.92;;;9.38;;
68250;SDS011;55066;51.560;4.642;2024-03-08T09:13:27;23.10;;;8.30;;
68250;SDS011;55066;51.560;4.642;2024-03-08T09:15:52;24.02;;;8.70;;
68250;SDS011;55066;51.560;4.642;2024-03-08T09:18:18;27.77;;;9.77;;
68250;SDS011;55066;51.560;4.642;2024-03-08T09:20:44;30.92;;;10.48;;
68250;SDS011;55066;51.560;4.642;2024-03-08T09:23:12;29.63;;;10.83;;
68250;SDS011;55066;51.560;4.642;2024-03-08T09:25:38;18.95;;;7.38;;
68250;SDS011;55066;51.560;4.642;2024-03-08T09:28:04;25.35;;;7.97;;
68250;SDS011;55066;51.560;4.642;2024-03-08T09:30:30;34.05;;;11.85;;
68250;SDS011;55066;51.560;4.642;2024-03-08T09:32:57;28.17;;;11.45;;
68250;SDS011;55066;51.560;4.642;2024-03-08T09:35:22;32.60;;;9.30;;
68250;SDS011;55066;51.560;4.642;2024-03-08T09:37:49;29.95;;;10.57;;
68250;SDS011;55066;51.560;4.642;2024-03-08T09:40:16;20.85;;;7.55;;
68250;SDS011;55066;51.560;4.642;2024-03-08T09:42:44;26.35;;;9.57;;
68250;SDS011;55066;51.560;4.642;2024-03-08T09:45:12;19.97;;;7.50;;
68250;SDS011;55066;51.560;4.642;2024-03-08T09:47:44;28.73;;;9.95;;
68250;SDS011;55066;51.560;4.642;2024-03-08T09:50:10;23.30;;;7.72;;
68250;SDS011;55066;51.560;4.642;2024-03-08T09:52:48;20.83;;;8.10;;
68250;SDS011;55066;51.560;4.642;2024-03-08T09:55:15;29.80;;;9.55;;
68250;SDS011;55066;51.560;4.642;2024-03-08T09:57:43;25.60;;;9.88;;
68250;SDS011;55066;51.560;4.642;2024-03-08T10:00:30;25.25;;;9.30;;
68250;SDS011;55066;51.560;4.642;2024-03-08T10:03:00;28.53;;;9.97;;
68250;SDS011;55066;51.560;4.642;2024-03-08T10:05:31;21.27;;;7.95;;
68250;SDS011;55066;51.560;4.642;2024-03-08T10:07:59;30.48;;;9.90;;
68250;SDS011;55066;51.560;4.642;2024-03-08T10:10:24;22.93;;;7.87;;
68250;SDS011;55066;51.560;4.642;2024-03-08T10:12:51;25.00;;;9.20;;
68250;SDS011;55066;51.560;4.642;2024-03-08T10:15:18;26.20;;;9.45;;
68250;SDS011;55066;51.560;4.642;2024-03-08T10:17:46;25.65;;;8.88;;
68250;SDS011;55066;51.560;4.642;2024-03-08T10:20:14;28.60;;;9.67;;
68250;SDS011;55066;51.560;4.642;2024-03-08T10:22:44;22.88;;;8.40;;
68250;SDS011;55066;51.560;4.642;2024-03-08T10:25:10;19.97;;;6.90;;
68250;SDS011;55066;51.560;4.642;2024-03-08T10:27:39;26.13;;;8.77;;
68250;SDS011;55066;51.560;4.642;2024-03-08T10:30:06;24.95;;;7.75;;
68250;SDS011;55066;51.560;4.642;2024-03-08T10:32:35;19.52;;;7.22;;
68250;SDS011;55066;51.560;4.642;2024-03-08T10:35:02;21.60;;;7.27;;
68250;SDS011;55066;51.560;4.642;2024-03-08T10:37:28;23.50;;;9.18;;
68250;SDS011;55066;51.560;4.642;2024-03-08T10:40:02;26.15;;;9.80;;
68250;SDS011;55066;51.560;4.642;2024-03-08T10:42:43;24.57;;;8.17;;
68250;SDS011;55066;51.560;4.642;2024-03-08T10:45:26;23.33;;;8.02;;
68250;SDS011;55066;51.560;4.642;2024-03-08T10:48:02;17.48;;;7.00;;
68250;SDS011;55066;51.560;4.642;2024-03-08T10:50:41;20.58;;;7.38;;
68250;SDS011;55066;51.560;4.642;2024-03-08T10:53:10;23.65;;;8.73;;
68250;SDS011;55066;51.560;4.642;2024-03-08T10:55:38;21.10;;;8.60;;
68250;SDS011;55066;51.560;4.642;2024-03-08T10:58:06;22.08;;;7.18;;
68250;SDS011;55066;51.560;4.642;2024-03-08T11:00:33;18.23;;;7.57;;
68250;SDS011;55066;51.560;4.642;2024-03-08T11:03:00;24.55;;;8.32;;
68250;SDS011;55066;51.560;4.642;2024-03-08T11:08:24;22.90;;;7.57;;
68250;SDS011;55066;51.560;4.642;2024-03-08T11:10:50;23.00;;;8.20;;
68250;SDS011;55066;51.560;4.642;2024-03-08T11:13:37;20.20;;;7.20;;
68250;SDS011;55066;51.560;4.642;2024-03-08T11:16:51;22.67;;;8.20;;
68250;SDS011;55066;51.560;4.642;2024-03-08T11:18:54;17.20;;;6.77;;
68250;SDS011;55066;51.560;4.642;2024-03-08T11:21:40;17.55;;;7.32;;
68250;SDS011;55066;51.560;4.642;2024-03-08T11:24:10;22.15;;;7.95;;
68250;SDS011;55066;51.560;4.642;2024-03-08T11:26:38;21.70;;;8.60;;
68250;SDS011;55066;51.560;4.642;2024-03-08T11:32:08;20.67;;;8.10;;
68250;SDS011;55066;51.560;4.642;2024-03-08T11:34:39;21.38;;;7.88;;
68250;SDS011;55066;51.560;4.642;2024-03-08T11:37:18;15.60;;;7.00;;
68250;SDS011;55066;51.560;4.642;2024-03-08T11:39:52;18.63;;;7.88;;
68250;SDS011;55066;51.560;4.642;2024-03-08T11:42:24;21.73;;;7.93;;
68250;SDS011;55066;51.560;4.642;2024-03-08T11:44:51;23.70;;;7.40;;
68250;SDS011;55066;51.560;4.642;2024-03-08T11:47:17;19.73;;;7.68;;
68250;SDS011;55066;51.560;4.642;2024-03-08T11:49:44;23.00;;;8.82;;
68250;SDS011;55066;51.560;4.642;2024-03-08T11:52:14;22.90;;;8.75;;
68250;SDS011;55066;51.560;4.642;2024-03-08T11:54:54;19.45;;;8.02;;
68250;SDS011;55066;51.560;4.642;2024-03-08T11:57:23;21.43;;;7.73;;
68250;SDS011;55066;51.560;4.642;2024-03-08T11:59:50;21.20;;;7.97;;
68250;SDS011;55066;51.560;4.642;2024-03-08T12:02:18;20.48;;;7.45;;
68250;SDS011;55066;51.560;4.642;2024-03-08T12:04:58;20.27;;;7.65;;
68250;SDS011;55066;51.560;4.642;2024-03-08T12:07:25;20.58;;;7.78;;
68250;SDS011;55066;51.560;4.642;2024-03-08T12:12:47;18.23;;;7.50;;
68250;SDS011;55066;51.560;4.642;2024-03-08T12:15:18;17.30;;;7.00;;
68250;SDS011;55066;51.560;4.642;2024-03-08T12:17:49;17.90;;;7.53;;
68250;SDS011;55066;51.560;4.642;2024-03-08T12:20:27;20.30;;;8.00;;
68250;SDS011;55066;51.560;4.642;2024-03-08T12:22:58;15.97;;;6.70;;
68250;SDS011;55066;51.560;4.642;2024-03-08T12:25:30;19.23;;;7.68;;
68250;SDS011;55066;51.560;4.642;2024-03-08T12:28:06;19.83;;;7.70;;
68250;SDS011;55066;51.560;4.642;2024-03-08T12:30:35;18.08;;;7.45;;
68250;SDS011;55066;51.560;4.642;2024-03-08T12:33:11;17.05;;;6.72;;
68250;SDS011;55066;51.560;4.642;2024-03-08T12:35:37;19.70;;;7.90;;
68250;SDS011;55066;51.560;4.642;2024-03-08T12:38:06;21.42;;;8.45;;
68250;SDS011;55066;51.560;4.642;2024-03-08T12:40:33;20.98;;;7.38;;
68250;SDS011;55066;51.560;4.642;2024-03-08T12:43:07;14.05;;;6.15;;
68250;SDS011;55066;51.560;4.642;2024-03-08T12:45:32;19.23;;;7.60;;
68250;SDS011;55066;51.560;4.642;2024-03-08T12:47:58;16.10;;;6.95;;
68250;SDS011;55066;51.560;4.642;2024-03-08T12:50:24;23.35;;;7.63;;
68250;SDS011;55066;51.560;4.642;2024-03-08T12:52:50;17.33;;;7.05;;
68250;SDS011;55066;51.560;4.642;2024-03-08T12:55:21;18.67;;;7.23;;
68250;SDS011;55066;51.560;4.642;2024-03-08T12:57:54;19.15;;;7.38;;
68250;SDS011;55066;51.560;4.642;2024-03-08T13:00:39;19.48;;;7.22;;
68250;SDS011;55066;51.560;4.642;2024-03-08T13:03:31;19.98;;;7.70;;
68250;SDS011;55066;51.560;4.642;2024-03-08T13:06:04;16.83;;;7.32;;
68250;SDS011;55066;51.560;4.642;2024-03-08T13:09:04;18.67;;;7.87;;
68250;SDS011;55066;51.560;4.642;2024-03-08T13:12:25;18.40;;;7.38;;
68250;SDS011;55066;51.560;4.642;2024-03-08T13:14:52;17.70;;;7.55;;
68250;SDS011;55066;51.560;4.642;2024-03-08T13:17:17;16.48;;;6.57;;
68250;SDS011;55066;51.560;4.642;2024-03-08T13:19:44;15.45;;;6.20;;
68250;SDS011;55066;51.560;4.642;2024-03-08T13:22:11;14.02;;;6.38;;
68250;SDS011;55066;51.560;4.642;2024-03-08T13:24:40;17.85;;;7.22;;
68250;SDS011;55066;51.560;4.642;2024-03-08T13:27:11;14.80;;;6.47;;
68250;SDS011;55066;51.560;4.642;2024-03-08T13:29:50;21.23;;;7.60;;
68250;SDS011;55066;51.560;4.642;2024-03-08T13:32:17;18.77;;;8.05;;
68250;SDS011;55066;51.560;4.642;2024-03-08T13:34:47;20.83;;;7.15;;
68250;SDS011;55066;51.560;4.642;2024-03-08T13:37:42;17.33;;;7.15;;
68250;SDS011;55066;51.560;4.642;2024-03-08T13:40:11;17.33;;;6.95;;
68250;SDS011;55066;51.560;4.642;2024-03-08T13:42:47;18.85;;;8.20;;
68250;SDS011;55066;51.560;4.642;2024-03-08T13:45:18;16.17;;;6.38;;
68250;SDS011;55066;51.560;4.642;2024-03-08T13:47:52;19.77;;;7.65;;
68250;SDS011;55066;51.560;4.642;2024-03-08T13:50:20;19.00;;;8.00;;
68250;SDS011;55066;51.560;4.642;2024-03-08T13:52:51;15.93;;;7.00;;
68250;SDS011;55066;51.560;4.642;2024-03-08T13:55:22;19.65;;;7.57;;
68250;SDS011;55066;51.560;4.642;2024-03-08T13:57:53;20.15;;;7.82;;
68250;SDS011;55066;51.560;4.642;2024-03-08T14:00:20;16.05;;;6.60;;
68250;SDS011;55066;51.560;4.642;2024-03-08T14:02:54;20.75;;;8.52;;
68250;SDS011;55066;51.560;4.642;2024-03-08T14:05:22;17.45;;;7.47;;
68250;SDS011;55066;51.560;4.642;2024-03-08T14:07:50;18.88;;;7.97;;
68250;SDS011;55066;51.560;4.642;2024-03-08T14:10:21;20.45;;;7.22;;
68250;SDS011;55066;51.560;4.642;2024-03-08T14:12:50;18.83;;;7.65;;
68250;SDS011;55066;51.560;4.642;2024-03-08T14:15:32;16.63;;;6.47;;
68250;SDS011;55066;51.560;4.642;2024-03-08T14:18:07;16.63;;;6.80;;
68250;SDS011;55066;51.560;4.642;2024-03-08T14:20:38;17.88;;;7.30;;
68250;SDS011;55066;51.560;4.642;2024-03-08T14:23:14;19.52;;;7.05;;
68250;SDS011;55066;51.560;4.642;2024-03-08T14:26:17;14.60;;;5.97;;
68250;SDS011;55066;51.560;4.642;2024-03-08T14:29:15;14.45;;;6.25;;
68250;SDS011;55066;51.560;4.642;2024-03-08T14:31:45;20.65;;;7.25;;
68250;SDS011;55066;51.560;4.642;2024-03-08T14:34:32;17.10;;;7.43;;
68250;SDS011;55066;51.560;4.642;2024-03-08T14:37:15;19.00;;;7.47;;
68250;SDS011;55066;51.560;4.642;2024-03-08T14:39:53;16.33;;;7.00;;
68250;SDS011;55066;51.560;4.642;2024-03-08T14:42:25;17.58;;;6.47;;
68250;SDS011;55066;51.560;4.642;2024-03-08T14:44:56;16.95;;;7.40;;
68250;SDS011;55066;51.560;4.642;2024-03-08T14:47:24;15.52;;;6.07;;